sensor_id;sensor_type;location;lat;lon;timestamp;noise_LAeq;noise_LA_min;noise_LA_max;noise_LA01;noise_LA95
40465;Laerm;30489;48.982;8.394;2022-11-20T00:01:20;38.46;35.94;40.53;;
40465;Laerm;30489;48.982;8.394;2022-11-20T00:03:31;38.46;35.66;40.53;;
40465;Laerm;30489;48.982;8.394;2022-11-20T00:05:41;38.45;35.66;40.43;;
40465;Laerm;30489;48.982;8.394;2022-11-20T00:07:51;38.48;35.66;40.53;;
40465;Laerm;30489;48.982;8.394;2022-11-20T00:10:01;38.42;35.66;40.53;;
40465;Laerm;30489;48.982;8.394;2022-11-20T00:12:12;38.45;35.66;40.53;;
40465;Laerm;30489;48.982;8.394;2022-11-20T00:14:22;38.46;35.66;40.62;;
40465;Laerm;30489;48.982;8.394;2022-11-20T00:16:32;38.49;35.66;40.43;;
40465;Laerm;30489;48.982;8.394;2022-11-20T00:18:43;38.48;35.66;40.62;;
40465;Laerm;30489;48.982;8.394;2022-11-20T00:21:00;38.44;35.66;40.62;;
40465;Laerm;30489;48.982;8.394;2022-11-20T00:23:10;38.48;35.94;40.71;;
40465;Laerm;30489;48.982;8.394;2022-11-20T00:25:20;38.43;35.86;40.71;;
40465;Laerm;30489;48.982;8.394;2022-11-20T00:27:30;38.44;35.94;40.71;;
40465;Laerm;30489;48.982;8.394;2022-11-20T00:29:41;38.39;35.94;40.33;;
40465;Laerm;30489;48.982;8.394;2022-11-20T00:31:51;38.45;35.66;40.43;;
40465;Laerm;30489;48.982;8.394;2022-11-20T00:34:01;38.46;35.94;40.62;;
40465;Laerm;30489;48.982;8.394;2022-11-20T00:36:13;38.45;35.94;40.62;;
40465;Laerm;30489;48.982;8.394;2022-11-20T00:38:24;38.43;35.66;40.62;;
40465;Laerm;30489;48.982;8.394;2022-11-20T00:40:34;38.46;35.66;40.62;;
40465;Laerm;30489;48.982;8.394;2022-11-20T00:42:44;38.46;35.66;40.71;;
40465;Laerm;30489;48.982;8.394;2022-11-20T00:44:54;38.42;35.66;40.43;;
40465;Laerm;30489;48.982;8.394;2022-11-20T00:47:05;38.44;35.36;40.98;;
40465;Laerm;30489;48.982;8.394;2022-11-20T00:49:15;38.43;35.94;40.71;;
40465;Laerm;30489;48.982;8.394;2022-11-20T00:51:25;38.43;35.94;40.89;;
40465;Laerm;30489;48.982;8.394;2022-11-20T00:53:36;38.44;35.04;40.53;;
40465;Laerm;30489;48.982;8.394;2022-11-20T00:55:53;38.46;35.66;40.43;;
40465;Laerm;30489;48.982;8.394;2022-11-20T00:58:04;38.43;36.10;40.71;;
40465;Laerm;30489;48.982;8.394;2022-11-20T01:00:14;38.47;35.36;40.43;;
40465;Laerm;30489;48.982;8.394;2022-11-20T01:02:24;38.48;35.36;40.62;;
40465;Laerm;30489;48.982;8.394;2022-11-20T01:04:35;38.41;35.66;40.53;;
40465;Laerm;30489;48.982;8.394;2022-11-20T01:06:45;38.43;35.94;40.53;;
40465;Laerm;30489;48.982;8.394;2022-11-20T01:08:56;38.42;35.66;40.89;;
40465;Laerm;30489;48.982;8.394;2022-11-20T01:11:14;38.44;35.66;40.89;;
40465;Laerm;30489;48.982;8.394;2022-11-20T01:13:25;38.40;35.66;40.62;;
40465;Laerm;30489;48.982;8.394;2022-11-20T01:15:47;38.44;35.66;40.43;;
40465;Laerm;30489;48.982;8.394;2022-11-20T01:17:57;38.41;35.36;40.43;;
40465;Laerm;30489;48.982;8.394;2022-11-20T01:20:08;38.45;35.66;40.71;;
40465;Laerm;30489;48.982;8.394;2022-11-20T01:22:18;38.43;35.04;40.53;;
40465;Laerm;30489;48.982;8.394;2022-11-20T01:24:28;38.43;35.94;40.80;;
40465;Laerm;30489;48.982;8.394;2022-11-20T01:26:39;38.45;35.66;40.62;;
40465;Laerm;30489;48.982;8.394;2022-11-20T01:28:50;38.43;35.66;40.89;;
40465;Laerm;30489;48.982;8.394;2022-11-20T01:31:01;38.45;35.04;40.43;;
40465;Laerm;30489;48.982;8.394;2022-11-20T01:33:12;38.44;35.66;40.53;;
40465;Laerm;30489;48.982;8.394;2022-11-20T01:35:22;38.43;35.36;40.53;;
40465;Laerm;30489;48.982;8.394;2022-11-20T01:37:32;38.44;35.66;40.53;;
40465;Laerm;30489;48.982;8.394;2022-11-20T01:39:42;38.45;35.36;40.62;;
40465;Laerm;30489;48.982;8.394;2022-11-20T01:41:53;38.44;35.94;40.43;;
40465;Laerm;30489;48.982;8.394;2022-11-20T01:47:00;38.46;35.36;40.62;;
40465;Laerm;30489;48.982;8.394;2022-11-20T01:49:16;38.47;35.66;40.80;;
40465;Laerm;30489;48.982;8.394;2022-11-20T01:51:30;38.48;35.66;40.62;;
40465;Laerm;30489;48.982;8.394;2022-11-20T01:53:42;38.46;35.66;40.53;;
40465;Laerm;30489;48.982;8.394;2022-11-20T01:55:53;38.46;35.94;40.62;;
40465;Laerm;30489;48.982;8.394;2022-11-20T01:58:04;38.43;35.66;40.71;;
40465;Laerm;30489;48.982;8.394;2022-11-20T02:00:16;38.43;35.66;40.33;;
40465;Laerm;30489;48.982;8.394;2022-11-20T02:02:27;38.38;35.66;40.71;;
40465;Laerm;30489;48.982;8.394;2022-11-20T02:04:37;38.31;35.66;40.62;;
40465;Laerm;30489;48.982;8.394;2022-11-20T02:06:49;38.28;34.69;40.23;;
40465;Laerm;30489;48.982;8.394;2022-11-20T02:09:00;38.27;35.66;43.34;;
40465;Laerm;30489;48.982;8.394;2022-11-20T02:11:10;38.27;35.36;40.71;;
40465;Laerm;30489;48.982;8.394;2022-11-20T02:13:22;38.27;35.36;40.62;;
40465;Laerm;30489;48.982;8.394;2022-11-20T02:15:51;38.27;35.59;40.33;;
40465;Laerm;30489;48.982;8.394;2022-11-20T02:18:02;38.27;35.94;40.89;;
40465;Laerm;30489;48.982;8.394;2022-11-20T02:20:12;38.29;35.66;40.62;;
40465;Laerm;30489;48.982;8.394;2022-11-20T02:22:31;38.45;35.66;40.43;;
40465;Laerm;30489;48.982;8.394;2022-11-20T02:24:43;38.43;35.04;40.43;;
40465;Laerm;30489;48.982;8.394;2022-11-20T02:27:05;38.41;35.94;40.71;;
40465;Laerm;30489;48.982;8.394;2022-11-20T02:29:18;38.44;35.94;40.62;;
40465;Laerm;30489;48.982;8.394;2022-11-20T02:31:33;38.40;35.66;40.53;;
40465;Laerm;30489;48.982;8.394;2022-11-20T02:33:44;38.42;35.94;40.71;;
40465;Laerm;30489;48.982;8.394;2022-11-20T02:35:54;38.43;35.66;40.43;;
40465;Laerm;30489;48.982;8.394;2022-11-20T02:38:04;38.40;35.66;40.43;;
40465;Laerm;30489;48.982;8.394;2022-11-20T02:40:14;38.42;35.66;40.80;;
40465;Laerm;30489;48.982;8.394;2022-11-20T02:42:25;38.39;35.66;40.80;;
40465;Laerm;30489;48.982;8.394;2022-11-20T02:44:35;38.38;35.36;40.54;;
40465;Laerm;30489;48.982;8.394;2022-11-20T02:46:45;38.39;35.66;40.89;;
40465;Laerm;30489;48.982;8.394;2022-11-20T02:48:56;38.40;35.04;40.43;;
40465;Laerm;30489;48.982;8.394;2022-11-20T02:51:06;38.41;35.36;40.71;;
40465;Laerm;30489;48.982;8.394;2022-11-20T02:53:16;38.42;35.66;40.62;;
40465;Laerm;30489;48.982;8.394;2022-11-20T02:55:26;38.43;35.36;40.71;;
40465;Laerm;30489;48.982;8.394;2022-11-20T02:57:36;38.43;35.66;40.62;;
40465;Laerm;30489;48.982;8.394;2022-11-20T02:59:47;38.44;35.66;40.62;;
40465;Laerm;30489;48.982;8.394;2022-11-20T03:01:57;38.43;35.66;40.62;;
40465;Laerm;30489;48.982;8.394;2022-11-20T03:04:07;38.43;35.66;40.62;;
40465;Laerm;30489;48.982;8.394;2022-11-20T03:06:17;38.48;35.66;40.89;;
40465;Laerm;30489;48.982;8.394;2022-11-20T03:08:28;38.45;35.36;40.80;;
40465;Laerm;30489;48.982;8.394;2022-11-20T03:10:38;38.45;35.36;40.62;;
40465;Laerm;30489;48.982;8.394;2022-11-20T03:12:52;38.44;35.66;40.80;;
40465;Laerm;30489;48.982;8.394;2022-11-20T03:15:02;38.46;35.66;40.43;;
40465;Laerm;30489;48.982;8.394;2022-11-20T03:17:13;38.46;35.36;40.62;;
40465;Laerm;30489;48.982;8.394;2022-11-20T03:19:23;38.45;35.86;40.53;;
40465;Laerm;30489;48.982;8.394;2022-11-20T03:21:33;38.43;35.66;40.53;;
40465;Laerm;30489;48.982;8.394;2022-11-20T03:23:44;38.45;35.94;40.89;;
40465;Laerm;30489;48.982;8.394;2022-11-20T03:25:54;38.45;35.66;40.79;;
40465;Laerm;30489;48.982;8.394;2022-11-20T03:28:04;38.42;35.66;40.33;;
40465;Laerm;30489;48.982;8.394;2022-11-20T03:30:14;38.45;35.66;40.33;;
40465;Laerm;30489;48.982;8.394;2022-11-20T03:32:25;38.48;35.66;40.43;;
40465;Laerm;30489;48.982;8.394;2022-11-20T03:34:35;38.48;35.94;40.71;;
40465;Laerm;30489;48.982;8.394;2022-11-20T03:36:45;38.43;35.86;40.53;;
40465;Laerm;30489;48.982;8.394;2022-11-20T03:38:56;38.45;35.94;40.62;;
40465;Laerm;30489;48.982;8.394;2022-11-20T03:41:10;38.45;35.36;40.89;;
40465;Laerm;30489;48.982;8.394;2022-11-20T03:43:21;38.49;35.36;40.89;;
40465;Laerm;30489;48.982;8.394;2022-11-20T03:45:31;38.49;35.66;40.43;;
40465;Laerm;30489;48.982;8.394;2022-11-20T03:47:41;38.47;35.94;40.53;;
40465;Laerm;30489;48.982;8.394;2022-11-20T03:49:51;38.48;35.94;40.43;;
40465;Laerm;30489;48.982;8.394;2022-11-20T03:52:02;38.47;35.66;40.43;;
40465;Laerm;30489;48.982;8.394;2022-11-20T03:54:12;38.52;35.66;40.53;;
40465;Laerm;30489;48.982;8.394;2022-11-20T03:56:23;38.51;36.20;40.43;;
40465;Laerm;30489;48.982;8.394;2022-11-20T03:58:34;38.51;35.66;40.80;;
40465;Laerm;30489;48.982;8.394;2022-11-20T04:00:46;38.51;35.66;40.62;;
40465;Laerm;30489;48.982;8.394;2022-11-20T04:03:00;38.52;35.94;40.71;;
40465;Laerm;30489;48.982;8.394;2022-11-20T04:05:11;38.51;35.94;40.54;;
40465;Laerm;30489;48.982;8.394;2022-11-20T04:07:21;38.49;35.94;40.63;;
40465;Laerm;30489;48.982;8.394;2022-11-20T04:09:31;38.53;36.20;40.43;;
40465;Laerm;30489;48.982;8.394;2022-11-20T04:11:41;38.54;35.94;40.62;;
40465;Laerm;30489;48.982;8.394;2022-11-20T04:13:52;38.54;35.86;40.43;;
40465;Laerm;30489;48.982;8.394;2022-11-20T04:16:04;38.55;35.86;40.53;;
40465;Laerm;30489;48.982;8.394;2022-11-20T04:18:14;38.57;36.20;40.71;;
40465;Laerm;30489;48.982;8.394;2022-11-20T04:20:24;38.52;35.94;40.53;;
40465;Laerm;30489;48.982;8.394;2022-11-20T04:22:34;38.53;35.94;40.80;;
40465;Laerm;30489;48.982;8.394;2022-11-20T04:24:44;38.54;35.04;40.62;;
40465;Laerm;30489;48.982;8.394;2022-11-20T04:26:55;38.54;35.66;40.53;;
40465;Laerm;30489;48.982;8.394;2022-11-20T04:29:05;38.53;35.66;40.43;;
40465;Laerm;30489;48.982;8.394;2022-11-20T04:31:16;38.53;35.36;40.45;;
40465;Laerm;30489;48.982;8.394;2022-11-20T04:33:27;38.55;36.20;40.53;;
40465;Laerm;30489;48.982;8.394;2022-11-20T04:35:37;38.53;35.94;40.62;;
40465;Laerm;30489;48.982;8.394;2022-11-20T04:37:50;38.52;35.36;40.89;;
40465;Laerm;30489;48.982;8.394;2022-11-20T04:40:00;38.53;35.66;40.62;;
40465;Laerm;30489;48.982;8.394;2022-11-20T04:42:11;38.53;35.66;40.62;;
40465;Laerm;30489;48.982;8.394;2022-11-20T04:44:39;38.54;35.86;40.62;;
40465;Laerm;30489;48.982;8.394;2022-11-20T04:46:49;38.53;35.94;40.80;;
40465;Laerm;30489;48.982;8.394;2022-11-20T04:49:00;38.54;35.94;40.53;;
40465;Laerm;30489;48.982;8.394;2022-11-20T04:51:10;38.55;35.04;40.71;;
40465;Laerm;30489;48.982;8.394;2022-11-20T04:53:21;38.53;35.94;40.53;;
40465;Laerm;30489;48.982;8.394;2022-11-20T04:55:32;38.54;35.94;40.71;;
40465;Laerm;30489;48.982;8.394;2022-11-20T04:57:42;38.51;35.94;40.43;;
40465;Laerm;30489;48.982;8.394;2022-11-20T04:59:52;38.52;35.66;40.43;;
40465;Laerm;30489;48.982;8.394;2022-11-20T05:02:02;38.52;35.36;40.23;;
40465;Laerm;30489;48.982;8.394;2022-11-20T05:04:12;38.53;35.66;40.63;;
40465;Laerm;30489;48.982;8.394;2022-11-20T05:06:23;38.55;35.94;40.80;;
40465;Laerm;30489;48.982;8.394;2022-11-20T05:08:33;38.53;35.94;40.89;;
40465;Laerm;30489;48.982;8.394;2022-11-20T05:10:44;38.55;36.20;40.53;;
40465;Laerm;30489;48.982;8.394;2022-11-20T05:12:54;38.55;35.94;40.53;;
40465;Laerm;30489;48.982;8.394;2022-11-20T05:15:04;38.53;35.86;40.53;;
40465;Laerm;30489;48.982;8.394;2022-11-20T05:17:14;38.55;35.94;40.43;;
40465;Laerm;30489;48.982;8.394;2022-11-20T05:19:25;38.51;36.20;40.33;;
40465;Laerm;30489;48.982;8.394;2022-11-20T05:21:35;38.53;35.94;40.62;;
40465;Laerm;30489;48.982;8.394;2022-11-20T05:23:45;38.56;36.20;40.62;;
40465;Laerm;30489;48.982;8.394;2022-11-20T05:25:56;38.57;35.04;40.71;;
40465;Laerm;30489;48.982;8.394;2022-11-20T05:28:06;38.57;36.20;41.06;;
40465;Laerm;30489;48.982;8.394;2022-11-20T05:30:17;38.58;35.94;40.62;;
40465;Laerm;30489;48.982;8.394;2022-11-20T05:32:27;38.57;36.20;40.71;;
40465;Laerm;30489;48.982;8.394;2022-11-20T05:34:37;38.58;35.94;40.80;;
40465;Laerm;30489;48.982;8.394;2022-11-20T05:36:47;38.55;36.20;40.71;;
40465;Laerm;30489;48.982;8.394;2022-11-20T05:38:57;38.60;36.20;40.89;;
40465;Laerm;30489;48.982;8.394;2022-11-20T05:41:12;38.58;35.66;40.43;;
40465;Laerm;30489;48.982;8.394;2022-11-20T05:43:23;38.54;35.94;40.71;;
40465;Laerm;30489;48.982;8.394;2022-11-20T05:45:33;38.57;36.10;40.89;;
40465;Laerm;30489;48.982;8.394;2022-11-20T05:47:43;38.56;35.94;41.06;;
40465;Laerm;30489;48.982;8.394;2022-11-20T05:49:54;38.59;35.94;40.62;;
40465;Laerm;30489;48.982;8.394;2022-11-20T05:52:04;38.57;35.94;40.98;;
40465;Laerm;30489;48.982;8.394;2022-11-20T05:54:14;38.59;36.20;40.80;;
40465;Laerm;30489;48.982;8.394;2022-11-20T05:56:25;38.59;35.94;40.43;;
40465;Laerm;30489;48.982;8.394;2022-11-20T05:58:35;38.61;35.94;40.62;;
40465;Laerm;30489;48.982;8.394;2022-11-20T06:00:45;38.58;35.94;40.53;;
40465;Laerm;30489;48.982;8.394;2022-11-20T06:02:55;38.59;35.66;40.53;;
40465;Laerm;30489;48.982;8.394;2022-11-20T06:05:06;38.60;35.94;40.62;;
40465;Laerm;30489;48.982;8.394;2022-11-20T06:07:16;38.60;35.66;40.80;;
40465;Laerm;30489;48.982;8.394;2022-11-20T06:09:26;38.60;36.20;40.53;;
40465;Laerm;30489;48.982;8.394;2022-11-20T06:11:36;38.58;36.20;40.80;;
40465;Laerm;30489;48.982;8.394;2022-11-20T06:13:47;38.57;35.66;40.33;;
40465;Laerm;30489;48.982;8.394;2022-11-20T06:15:57;38.63;35.66;40.80;;
40465;Laerm;30489;48.982;8.394;2022-11-20T06:18:07;38.64;35.36;40.53;;
40465;Laerm;30489;48.982;8.394;2022-11-20T06:20:18;38.67;36.45;40.80;;
40465;Laerm;30489;48.982;8.394;2022-11-20T06:22:28;38.64;35.94;40.43;;
40465;Laerm;30489;48.982;8.394;2022-11-20T06:24:38;38.63;35.66;40.80;;
40465;Laerm;30489;48.982;8.394;2022-11-20T06:26:48;38.67;35.94;40.80;;
40465;Laerm;30489;48.982;8.394;2022-11-20T06:28:58;38.67;36.34;40.62;;
40465;Laerm;30489;48.982;8.394;2022-11-20T06:31:10;38.67;36.45;40.71;;
40465;Laerm;30489;48.982;8.394;2022-11-20T06:33:20;38.67;35.66;40.71;;
40465;Laerm;30489;48.982;8.394;2022-11-20T06:35:30;38.66;36.20;40.62;;
40465;Laerm;30489;48.982;8.394;2022-11-20T06:37:41;38.66;35.66;40.33;;
40465;Laerm;30489;48.982;8.394;2022-11-20T06:39:52;38.66;36.20;40.43;;
40465;Laerm;30489;48.982;8.394;2022-11-20T06:42:02;38.65;36.20;40.43;;
40465;Laerm;30489;48.982;8.394;2022-11-20T06:44:12;38.69;36.20;40.53;;
40465;Laerm;30489;48.982;8.394;2022-11-20T06:46:22;38.68;35.94;40.71;;
40465;Laerm;30489;48.982;8.394;2022-11-20T06:48:33;38.67;35.94;40.43;;
40465;Laerm;30489;48.982;8.394;2022-11-20T06:50:43;38.67;36.20;40.80;;
40465;Laerm;30489;48.982;8.394;2022-11-20T06:52:53;38.63;36.20;40.53;;
40465;Laerm;30489;48.982;8.394;2022-11-20T06:55:03;38.64;35.66;40.53;;
40465;Laerm;30489;48.982;8.394;2022-11-20T06:57:14;38.66;35.94;40.71;;
40465;Laerm;30489;48.982;8.394;2022-11-20T06:59:24;38.63;35.66;40.63;;
40465;Laerm;30489;48.982;8.394;2022-11-20T07:01:34;38.65;35.94;40.36;;
40465;Laerm;30489;48.982;8.394;2022-11-20T07:03:45;38.66;35.94;40.53;;
40465;Laerm;30489;48.982;8.394;2022-11-20T07:05:55;38.66;35.94;40.53;;
40465;Laerm;30489;48.982;8.394;2022-11-20T07:08:06;38.64;36.20;40.43;;
40465;Laerm;30489;48.982;8.394;2022-11-20T07:10:16;38.63;36.20;40.62;;
40465;Laerm;30489;48.982;8.394;2022-11-20T07:12:27;38.65;36.20;40.43;;
40465;Laerm;30489;48.982;8.394;2022-11-20T07:14:37;38.60;35.94;40.53;;
40465;Laerm;30489;48.982;8.394;2022-11-20T07:16:47;38.63;35.66;40.53;;
40465;Laerm;30489;48.982;8.394;2022-11-20T07:18:57;38.65;36.34;40.98;;
40465;Laerm;30489;48.982;8.394;2022-11-20T07:21:08;38.62;35.94;40.80;;
40465;Laerm;30489;48.982;8.394;2022-11-20T07:23:19;38.61;35.94;40.71;;
40465;Laerm;30489;48.982;8.394;2022-11-20T07:25:29;38.58;36.20;40.89;;
40465;Laerm;30489;48.982;8.394;2022-11-20T07:27:40;38.54;35.36;40.62;;
40465;Laerm;30489;48.982;8.394;2022-11-20T07:29:50;38.50;35.36;40.33;;
40465;Laerm;30489;48.982;8.394;2022-11-20T07:32:00;38.50;35.86;40.62;;
40465;Laerm;30489;48.982;8.394;2022-11-20T07:34:11;38.56;35.94;41.06;;
40465;Laerm;30489;48.982;8.394;2022-11-20T07:36:21;38.54;35.36;40.33;;
40465;Laerm;30489;48.982;8.394;2022-11-20T07:38:31;38.53;35.94;40.80;;
40465;Laerm;30489;48.982;8.394;2022-11-20T07:40:42;38.53;35.04;40.53;;
40465;Laerm;30489;48.982;8.394;2022-11-20T07:42:52;38.53;35.66;40.80;;
40465;Laerm;30489;48.982;8.394;2022-11-20T07:45:03;38.55;36.20;40.80;;
40465;Laerm;30489;48.982;8.394;2022-11-20T07:47:13;38.55;36.20;40.80;;
40465;Laerm;30489;48.982;8.394;2022-11-20T07:49:24;38.54;35.66;40.43;;
40465;Laerm;30489;48.982;8.394;2022-11-20T07:51:34;38.55;35.94;40.89;;
40465;Laerm;30489;48.982;8.394;2022-11-20T07:53:44;38.55;36.10;40.62;;
40465;Laerm;30489;48.982;8.394;2022-11-20T07:55:54;38.56;35.94;40.62;;
40465;Laerm;30489;48.982;8.394;2022-11-20T07:58:05;38.58;35.94;40.33;;
40465;Laerm;30489;48.982;8.394;2022-11-20T08:00:15;38.54;35.66;40.53;;
40465;Laerm;30489;48.982;8.394;2022-11-20T08:02:25;38.57;35.94;40.62;;
40465;Laerm;30489;48.982;8.394;2022-11-20T08:04:36;38.56;35.94;40.33;;
40465;Laerm;30489;48.982;8.394;2022-11-20T08:06:46;38.55;35.36;40.89;;
40465;Laerm;30489;48.982;8.394;2022-11-20T08:08:56;38.54;35.94;40.71;;
40465;Laerm;30489;48.982;8.394;2022-11-20T08:11:06;38.55;35.94;40.53;;
40465;Laerm;30489;48.982;8.394;2022-11-20T08:13:35;38.54;35.66;40.71;;
40465;Laerm;30489;48.982;8.394;2022-11-20T08:16:04;38.53;35.66;40.62;;
40465;Laerm;30489;48.982;8.394;2022-11-20T08:18:15;38.56;36.20;40.33;;
40465;Laerm;30489;48.982;8.394;2022-11-20T08:20:25;38.56;35.36;40.71;;
40465;Laerm;30489;48.982;8.394;2022-11-20T08:22:35;38.52;35.36;40.43;;
40465;Laerm;30489;48.982;8.394;2022-11-20T08:24:46;38.50;36.20;40.43;;
40465;Laerm;30489;48.982;8.394;2022-11-20T08:26:59;38.53;35.94;40.53;;
40465;Laerm;30489;48.982;8.394;2022-11-20T08:29:09;38.53;35.94;40.54;;
40465;Laerm;30489;48.982;8.394;2022-11-20T08:31:19;38.48;35.66;40.43;;
40465;Laerm;30489;48.982;8.394;2022-11-20T08:33:30;38.49;35.94;40.33;;
40465;Laerm;30489;48.982;8.394;2022-11-20T08:35:42;38.50;35.59;40.53;;
40465;Laerm;30489;48.982;8.394;2022-11-20T08:37:52;38.51;35.66;40.53;;
40465;Laerm;30489;48.982;8.394;2022-11-20T08:40:03;38.48;35.94;40.53;;
40465;Laerm;30489;48.982;8.394;2022-11-20T08:42:13;38.47;35.94;40.43;;
40465;Laerm;30489;48.982;8.394;2022-11-20T08:44:23;38.50;35.66;40.43;;
40465;Laerm;30489;48.982;8.394;2022-11-20T08:46:34;38.49;35.94;40.62;;
40465;Laerm;30489;48.982;8.394;2022-11-20T08:48:47;38.51;36.20;40.53;;
40465;Laerm;30489;48.982;8.394;2022-11-20T08:50:58;38.48;35.94;40.62;;
40465;Laerm;30489;48.982;8.394;2022-11-20T08:53:08;38.48;36.20;40.43;;
40465;Laerm;30489;48.982;8.394;2022-11-20T08:55:18;38.50;35.94;40.62;;
40465;Laerm;30489;48.982;8.394;2022-11-20T08:57:30;38.47;35.66;40.71;;
40465;Laerm;30489;48.982;8.394;2022-11-20T08:59:40;38.48;35.94;40.53;;
40465;Laerm;30489;48.982;8.394;2022-11-20T09:01:51;38.46;36.10;40.43;;
40465;Laerm;30489;48.982;8.394;2022-11-20T09:04:01;38.48;35.66;40.33;;
40465;Laerm;30489;48.982;8.394;2022-11-20T09:06:13;38.47;35.86;40.53;;
40465;Laerm;30489;48.982;8.394;2022-11-20T09:08:23;38.48;36.20;40.43;;
40465;Laerm;30489;48.982;8.394;2022-11-20T09:10:34;38.48;35.94;40.71;;
40465;Laerm;30489;48.982;8.394;2022-11-20T09:12:44;38.45;36.20;40.71;;
40465;Laerm;30489;48.982;8.394;2022-11-20T09:14:58;38.47;35.94;40.62;;
40465;Laerm;30489;48.982;8.394;2022-11-20T09:17:09;38.44;36.20;40.53;;
40465;Laerm;30489;48.982;8.394;2022-11-20T09:19:19;38.45;35.94;40.53;;
40465;Laerm;30489;48.982;8.394;2022-11-20T09:21:30;38.45;35.94;40.33;;
40465;Laerm;30489;48.982;8.394;2022-11-20T09:23:40;38.45;35.94;40.33;;
40465;Laerm;30489;48.982;8.394;2022-11-20T09:25:50;38.44;35.66;40.80;;
40465;Laerm;30489;48.982;8.394;2022-11-20T09:28:00;38.43;35.66;40.53;;
40465;Laerm;30489;48.982;8.394;2022-11-20T09:30:11;38.43;36.20;40.33;;
40465;Laerm;30489;48.982;8.394;2022-11-20T09:32:22;38.42;35.66;40.71;;
40465;Laerm;30489;48.982;8.394;2022-11-20T09:34:32;38.43;35.94;40.23;;
40465;Laerm;30489;48.982;8.394;2022-11-20T09:36:42;38.42;35.94;40.53;;
40465;Laerm;30489;48.982;8.394;2022-11-20T09:38:52;38.43;35.66;40.63;;
40465;Laerm;30489;48.982;8.394;2022-11-20T09:41:04;38.41;36.20;40.33;;
40465;Laerm;30489;48.982;8.394;2022-11-20T09:43:18;38.42;35.94;40.71;;
40465;Laerm;30489;48.982;8.394;2022-11-20T09:48:14;38.42;35.36;40.43;;
40465;Laerm;30489;48.982;8.394;2022-11-20T09:50:32;38.40;35.36;40.53;;
40465;Laerm;30489;48.982;8.394;2022-11-20T09:52:49;38.41;35.36;40.62;;
40465;Laerm;30489;48.982;8.394;2022-11-20T09:55:06;38.40;35.66;40.43;;
40465;Laerm;30489;48.982;8.394;2022-11-20T09:57:20;38.40;35.66;40.53;;
40465;Laerm;30489;48.982;8.394;2022-11-20T10:01:50;38.35;35.36;40.43;;
40465;Laerm;30489;48.982;8.394;2022-11-20T10:06:16;38.41;35.66;41.14;;
40465;Laerm;30489;48.982;8.394;2022-11-20T10:08:39;38.38;35.66;40.71;;
40465;Laerm;30489;48.982;8.394;2022-11-20T10:13:09;38.40;35.94;40.33;;
40465;Laerm;30489;48.982;8.394;2022-11-20T10:15:34;38.39;35.36;40.43;;
40465;Laerm;30489;48.982;8.394;2022-11-20T10:18:09;38.41;35.94;40.23;;
40465;Laerm;30489;48.982;8.394;2022-11-20T10:20:29;38.41;35.31;40.53;;
40465;Laerm;30489;48.982;8.394;2022-11-20T10:25:14;38.41;35.66;40.33;;
40465;Laerm;30489;48.982;8.394;2022-11-20T10:30:06;38.40;35.36;40.62;;
40465;Laerm;30489;48.982;8.394;2022-11-20T10:32:18;38.40;35.94;40.71;;
40465;Laerm;30489;48.982;8.394;2022-11-20T10:34:31;38.41;35.36;40.43;;
40465;Laerm;30489;48.982;8.394;2022-11-20T10:36:50;38.38;35.94;40.53;;
40465;Laerm;30489;48.982;8.394;2022-11-20T10:41:23;38.39;35.31;40.53;;
40465;Laerm;30489;48.982;8.394;2022-11-20T10:43:34;38.34;35.36;40.43;;
40465;Laerm;30489;48.982;8.394;2022-11-20T10:46:04;38.39;35.31;40.53;;
40465;Laerm;30489;48.982;8.394;2022-11-20T10:48:21;38.42;34.69;40.53;;
40465;Laerm;30489;48.982;8.394;2022-11-20T10:50:32;38.44;35.66;40.80;;
40465;Laerm;30489;48.982;8.394;2022-11-20T10:55:19;38.47;35.36;40.62;;
40465;Laerm;30489;48.982;8.394;2022-11-20T11:02:22;38.46;35.66;40.71;;
40465;Laerm;30489;48.982;8.394;2022-11-20T11:04:37;38.44;35.94;40.53;;
40465;Laerm;30489;48.982;8.394;2022-11-20T11:06:50;38.43;35.94;40.79;;
40465;Laerm;30489;48.982;8.394;2022-11-20T11:09:02;38.47;35.94;40.80;;
40465;Laerm;30489;48.982;8.394;2022-11-20T11:11:32;38.48;35.66;40.62;;
40465;Laerm;30489;48.982;8.394;2022-11-20T11:13:43;38.48;35.36;40.62;;
40465;Laerm;30489;48.982;8.394;2022-11-20T11:15:53;38.48;35.66;40.43;;
40465;Laerm;30489;48.982;8.394;2022-11-20T11:18:03;38.49;35.94;40.71;;
40465;Laerm;30489;48.982;8.394;2022-11-20T11:20:15;38.49;36.20;40.53;;
40465;Laerm;30489;48.982;8.394;2022-11-20T11:22:28;38.53;35.36;40.71;;
40465;Laerm;30489;48.982;8.394;2022-11-20T11:24:38;38.54;35.66;40.80;;
40465;Laerm;30489;48.982;8.394;2022-11-20T11:27:02;38.56;35.94;40.62;;
40465;Laerm;30489;48.982;8.394;2022-11-20T11:29:16;38.56;36.20;40.71;;
40465;Laerm;30489;48.982;8.394;2022-11-20T11:31:31;38.56;36.20;41.06;;
40465;Laerm;30489;48.982;8.394;2022-11-20T11:33:41;38.58;35.94;40.62;;
40465;Laerm;30489;48.982;8.394;2022-11-20T11:35:53;38.57;35.66;40.80;;
40465;Laerm;30489;48.982;8.394;2022-11-20T11:38:05;38.63;35.94;40.53;;
40465;Laerm;30489;48.982;8.394;2022-11-20T11:40:18;38.63;35.66;40.80;;
40465;Laerm;30489;48.982;8.394;2022-11-20T11:42:29;38.70;35.94;40.80;;
40465;Laerm;30489;48.982;8.394;2022-11-20T11:44:43;38.76;36.20;40.62;;
40465;Laerm;30489;48.982;8.394;2022-11-20T11:47:19;38.80;36.45;40.80;;
40465;Laerm;30489;48.982;8.394;2022-11-20T11:49:31;38.91;36.45;40.89;;
40465;Laerm;30489;48.982;8.394;2022-11-20T11:52:04;38.96;36.45;40.89;;
40465;Laerm;30489;48.982;8.394;2022-11-20T11:56:49;39.10;37.12;41.14;;
40465;Laerm;30489;48.982;8.394;2022-11-20T11:59:00;39.20;36.91;40.96;;
40465;Laerm;30489;48.982;8.394;2022-11-20T12:03:35;39.28;37.32;40.98;;
40465;Laerm;30489;48.982;8.394;2022-11-20T12:05:51;39.26;37.12;41.22;;
40465;Laerm;30489;48.982;8.394;2022-11-20T12:08:06;39.21;37.12;40.98;;
40465;Laerm;30489;48.982;8.394;2022-11-20T12:12:40;39.51;37.52;41.22;;
40465;Laerm;30489;48.982;8.394;2022-11-20T12:14:52;39.51;37.70;41.14;;
40465;Laerm;30489;48.982;8.394;2022-11-20T12:17:04;39.48;37.70;41.14;;
40465;Laerm;30489;48.982;8.394;2022-11-20T12:19:14;39.44;37.52;41.06;;
40465;Laerm;30489;48.982;8.394;2022-11-20T12:21:31;39.46;37.32;41.06;;
40465;Laerm;30489;48.982;8.394;2022-11-20T12:26:14;39.87;38.05;41.30;;
40465;Laerm;30489;48.982;8.394;2022-11-20T12:33:19;39.84;38.05;41.41;;
40465;Laerm;30489;48.982;8.394;2022-11-20T12:38:31;39.90;38.05;41.46;;
40465;Laerm;30489;48.982;8.394;2022-11-20T12:40:49;40.22;38.52;41.61;;
40465;Laerm;30489;48.982;8.394;2022-11-20T12:59:54;40.40;38.81;41.96;;
40465;Laerm;30489;48.982;8.394;2022-11-20T13:06:45;40.71;39.21;42.00;;
40465;Laerm;30489;48.982;8.394;2022-11-20T13:08:56;40.61;38.95;41.96;;
40465;Laerm;30489;48.982;8.394;2022-11-20T13:11:22;40.55;38.52;41.82;;
40465;Laerm;30489;48.982;8.394;2022-11-20T13:18:04;40.84;39.34;42.03;;
40465;Laerm;30489;48.982;8.394;2022-11-20T13:20:18;40.89;39.34;42.16;;
40465;Laerm;30489;48.982;8.394;2022-11-20T13:22:41;40.94;39.70;42.22;;
40465;Laerm;30489;48.982;8.394;2022-11-20T13:24:52;40.91;39.46;42.09;;
40465;Laerm;30489;48.982;8.394;2022-11-20T13:29:19;40.96;39.46;42.22;;
40465;Laerm;30489;48.982;8.394;2022-11-20T13:31:30;40.98;39.46;42.29;;